sensor_id;sensor_type;location;lat;lon;timestamp;P1;durP1;ratioP1;P2;durP2;ratioP2
15218;SDS011;15623;53.986;11.676;2023-02-01T00:07:12;22.63;;;4.00;;
15218;SDS011;15623;53.986;11.676;2023-02-01T00:09:54;17.60;;;3.30;;
15218;SDS011;15623;53.986;11.676;2023-02-01T00:15:30;18.13;;;2.80;;
15218;SDS011;15623;53.986;11.676;2023-02-01T00:18:00;17.03;;;3.00;;
15218;SDS011;15623;53.986;11.676;2023-02-01T00:20:30;13.40;;;2.63;;
15218;SDS011;15623;53.986;11.676;2023-02-01T00:23:07;11.17;;;2.63;;
15218;SDS011;15623;53.986;11.676;2023-02-01T00:25:41;17.00;;;2.77;;
15218;SDS011;15623;53.986;11.676;2023-02-01T00:28:14;15.93;;;2.60;;
15218;SDS011;15623;53.986;11.676;2023-02-01T00:30:43;12.20;;;2.90;;
15218;SDS011;15623;53.986;11.676;2023-02-01T00:42:01;12.77;;;3.03;;
15218;SDS011;15623;53.986;11.676;2023-02-01T00:44:32;7.47;;;2.27;;
15218;SDS011;15623;53.986;11.676;2023-02-01T00:50:06;15.80;;;3.07;;
15218;SDS011;15623;53.986;11.676;2023-02-01T00:52:35;8.50;;;2.30;;
15218;SDS011;15623;53.986;11.676;2023-02-01T00:58:15;11.77;;;3.03;;
15218;SDS011;15623;53.986;11.676;2023-02-01T01:00:44;17.53;;;2.53;;
15218;SDS011;15623;53.986;11.676;2023-02-01T01:03:16;9.67;;;2.37;;
15218;SDS011;15623;53.986;11.676;2023-02-01T01:05:48;13.47;;;3.00;;
15218;SDS011;15623;53.986;11.676;2023-02-01T01:08:54;13.37;;;2.60;;
15218;SDS011;15623;53.986;11.676;2023-02-01T01:11:30;9.97;;;1.77;;
15218;SDS011;15623;53.986;11.676;2023-02-01T01:14:14;13.30;;;1.97;;
15218;SDS011;15623;53.986;11.676;2023-02-01T01:19:57;8.70;;;1.87;;
15218;SDS011;15623;53.986;11.676;2023-02-01T01:22:37;8.07;;;2.03;;
15218;SDS011;15623;53.986;11.676;2023-02-01T01:28:26;14.33;;;2.63;;
15218;SDS011;15623;53.986;11.676;2023-02-01T01:34:12;12.90;;;2.40;;
15218;SDS011;15623;53.986;11.676;2023-02-01T01:39:15;18.60;;;3.27;;
15218;SDS011;15623;53.986;11.676;2023-02-01T01:42:03;20.70;;;3.37;;
15218;SDS011;15623;53.986;11.676;2023-02-01T01:48:01;12.30;;;2.83;;
15218;SDS011;15623;53.986;11.676;2023-02-01T01:50:48;15.30;;;2.90;;
15218;SDS011;15623;53.986;11.676;2023-02-01T01:53:38;17.03;;;3.30;;
15218;SDS011;15623;53.986;11.676;2023-02-01T01:56:19;13.40;;;2.87;;
15218;SDS011;15623;53.986;11.676;2023-02-01T02:01:32;12.70;;;3.00;;
15218;SDS011;15623;53.986;11.676;2023-02-01T02:04:02;23.47;;;4.43;;
15218;SDS011;15623;53.986;11.676;2023-02-01T02:09:52;19.87;;;4.03;;
15218;SDS011;15623;53.986;11.676;2023-02-01T02:12:32;19.40;;;3.73;;
15218;SDS011;15623;53.986;11.676;2023-02-01T02:15:16;30.33;;;4.53;;
15218;SDS011;15623;53.986;11.676;2023-02-01T02:17:47;17.30;;;3.23;;
15218;SDS011;15623;53.986;11.676;2023-02-01T02:58:44;14.90;;;3.10;;
15218;SDS011;15623;53.986;11.676;2023-02-01T03:01:30;11.00;;;2.10;;
15218;SDS011;15623;53.986;11.676;2023-02-01T03:13:57;29.47;;;5.03;;
15218;SDS011;15623;53.986;11.676;2023-02-01T03:16:41;23.50;;;3.30;;
15218;SDS011;15623;53.986;11.676;2023-02-01T03:19:33;29.40;;;3.47;;
15218;SDS011;15623;53.986;11.676;2023-02-01T03:28:00;28.80;;;3.90;;
15218;SDS011;15623;53.986;11.676;2023-02-01T03:30:40;27.93;;;4.97;;
15218;SDS011;15623;53.986;11.676;2023-02-01T03:33:13;23.47;;;4.33;;
15218;SDS011;15623;53.986;11.676;2023-02-01T03:36:00;19.07;;;3.77;;
15218;SDS011;15623;53.986;11.676;2023-02-01T03:38:33;30.00;;;4.47;;
15218;SDS011;15623;53.986;11.676;2023-02-01T03:41:11;29.33;;;4.80;;
15218;SDS011;15623;53.986;11.676;2023-02-01T03:43:45;20.47;;;3.67;;
15218;SDS011;15623;53.986;11.676;2023-02-01T03:46:29;30.50;;;4.93;;
15218;SDS011;15623;53.986;11.676;2023-02-01T03:49:05;23.43;;;4.20;;
15218;SDS011;15623;53.986;11.676;2023-02-01T03:51:35;17.13;;;3.80;;
15218;SDS011;15623;53.986;11.676;2023-02-01T03:54:06;32.83;;;4.37;;
15218;SDS011;15623;53.986;11.676;2023-02-01T03:56:35;31.80;;;5.00;;
15218;SDS011;15623;53.986;11.676;2023-02-01T03:59:21;29.40;;;4.30;;
15218;SDS011;15623;53.986;11.676;2023-02-01T04:01:54;24.03;;;4.30;;
15218;SDS011;15623;53.986;11.676;2023-02-01T04:04:34;21.53;;;4.40;;
15218;SDS011;15623;53.986;11.676;2023-02-01T04:07:11;24.50;;;4.90;;
15218;SDS011;15623;53.986;11.676;2023-02-01T04:09:38;24.93;;;4.50;;
15218;SDS011;15623;53.986;11.676;2023-02-01T04:12:17;27.23;;;4.17;;
15218;SDS011;15623;53.986;11.676;2023-02-01T04:14:47;22.37;;;4.17;;
15218;SDS011;15623;53.986;11.676;2023-02-01T04:17:28;33.10;;;4.93;;
15218;SDS011;15623;53.986;11.676;2023-02-01T04:20:08;30.07;;;4.63;;
15218;SDS011;15623;53.986;11.676;2023-02-01T04:22:43;32.63;;;5.07;;
15218;SDS011;15623;53.986;11.676;2023-02-01T04:25:15;25.23;;;4.60;;
15218;SDS011;15623;53.986;11.676;2023-02-01T04:27:55;33.10;;;4.63;;
15218;SDS011;15623;53.986;11.676;2023-02-01T04:30:37;25.87;;;4.83;;
15218;SDS011;15623;53.986;11.676;2023-02-01T04:33:11;34.20;;;4.77;;
15218;SDS011;15623;53.986;11.676;2023-02-01T04:35:48;22.30;;;4.60;;
15218;SDS011;15623;53.986;11.676;2023-02-01T04:38:31;32.87;;;5.00;;
15218;SDS011;15623;53.986;11.676;2023-02-01T04:41:00;34.00;;;5.37;;
15218;SDS011;15623;53.986;11.676;2023-02-01T04:43:37;32.90;;;5.10;;
15218;SDS011;15623;53.986;11.676;2023-02-01T04:46:12;28.47;;;4.97;;
15218;SDS011;15623;53.986;11.676;2023-02-01T04:48:48;27.43;;;4.90;;
15218;SDS011;15623;53.986;11.676;2023-02-01T04:51:16;33.43;;;5.53;;
15218;SDS011;15623;53.986;11.676;2023-02-01T04:53:48;32.90;;;5.20;;
15218;SDS011;15623;53.986;11.676;2023-02-01T04:56:36;35.83;;;6.03;;
15218;SDS011;15623;53.986;11.676;2023-02-01T04:59:06;31.13;;;4.90;;
15218;SDS011;15623;53.986;11.676;2023-02-01T05:01:51;30.50;;;5.20;;
15218;SDS011;15623;53.986;11.676;2023-02-01T05:07:11;24.13;;;4.60;;
15218;SDS011;15623;53.986;11.676;2023-02-01T05:09:52;24.80;;;4.67;;
15218;SDS011;15623;53.986;11.676;2023-02-01T05:12:26;23.23;;;4.10;;
15218;SDS011;15623;53.986;11.676;2023-02-01T05:21:13;15.77;;;2.90;;
15218;SDS011;15623;53.986;11.676;2023-02-01T05:23:53;18.67;;;3.60;;
15218;SDS011;15623;53.986;11.676;2023-02-01T05:27:06;13.07;;;3.27;;
15218;SDS011;15623;53.986;11.676;2023-02-01T05:32:45;49.23;;;21.30;;
15218;SDS011;15623;53.986;11.676;2023-02-01T05:38:21;9.67;;;3.63;;
15218;SDS011;15623;53.986;11.676;2023-02-01T05:40:59;12.97;;;2.80;;
15218;SDS011;15623;53.986;11.676;2023-02-01T05:43:44;9.90;;;2.50;;
15218;SDS011;15623;53.986;11.676;2023-02-01T05:46:12;13.20;;;2.80;;
15218;SDS011;15623;53.986;11.676;2023-02-01T05:48:45;12.77;;;4.30;;
15218;SDS011;15623;53.986;11.676;2023-02-01T05:51:22;11.37;;;2.43;;
15218;SDS011;15623;53.986;11.676;2023-02-01T05:54:04;7.67;;;2.07;;
15218;SDS011;15623;53.986;11.676;2023-02-01T05:56:41;6.40;;;2.77;;
15218;SDS011;15623;53.986;11.676;2023-02-01T05:59:15;6.70;;;2.03;;
15218;SDS011;15623;53.986;11.676;2023-02-01T06:01:49;3.90;;;1.80;;
15218;SDS011;15623;53.986;11.676;2023-02-01T06:04:24;5.77;;;1.70;;
15218;SDS011;15623;53.986;11.676;2023-02-01T06:09:34;7.70;;;2.00;;
15218;SDS011;15623;53.986;11.676;2023-02-01T06:12:04;3.93;;;1.30;;
15218;SDS011;15623;53.986;11.676;2023-02-01T06:14:39;6.57;;;1.60;;
15218;SDS011;15623;53.986;11.676;2023-02-01T06:17:08;3.40;;;1.70;;
15218;SDS011;15623;53.986;11.676;2023-02-01T06:19:42;5.70;;;2.20;;
15218;SDS011;15623;53.986;11.676;2023-02-01T06:22:22;3.73;;;1.10;;
15218;SDS011;15623;53.986;11.676;2023-02-01T06:25:07;6.47;;;1.30;;
15218;SDS011;15623;53.986;11.676;2023-02-01T06:27:53;5.43;;;1.30;;
15218;SDS011;15623;53.986;11.676;2023-02-01T06:30:21;4.67;;;1.27;;
15218;SDS011;15623;53.986;11.676;2023-02-01T06:33:04;2.27;;;1.00;;
15218;SDS011;15623;53.986;11.676;2023-02-01T06:36:02;4.97;;;1.17;;
15218;SDS011;15623;53.986;11.676;2023-02-01T06:38:37;2.97;;;0.90;;
15218;SDS011;15623;53.986;11.676;2023-02-01T06:41:33;4.70;;;0.80;;
15218;SDS011;15623;53.986;11.676;2023-02-01T06:44:08;2.60;;;1.03;;
15218;SDS011;15623;53.986;11.676;2023-02-01T06:49:33;2.70;;;0.80;;
15218;SDS011;15623;53.986;11.676;2023-02-01T06:52:19;2.93;;;1.10;;
15218;SDS011;15623;53.986;11.676;2023-02-01T06:57:25;5.20;;;1.23;;
15218;SDS011;15623;53.986;11.676;2023-02-01T07:05:44;5.70;;;1.33;;
15218;SDS011;15623;53.986;11.676;2023-02-01T07:08:58;6.80;;;1.50;;
15218;SDS011;15623;53.986;11.676;2023-02-01T07:11:32;5.87;;;1.50;;
15218;SDS011;15623;53.986;11.676;2023-02-01T07:14:22;8.37;;;1.60;;
15218;SDS011;15623;53.986;11.676;2023-02-01T07:16:57;6.57;;;1.70;;
15218;SDS011;15623;53.986;11.676;2023-02-01T07:19:31;6.40;;;1.50;;
15218;SDS011;15623;53.986;11.676;2023-02-01T07:22:10;6.37;;;1.67;;
15218;SDS011;15623;53.986;11.676;2023-02-01T07:24:51;7.37;;;1.63;;
15218;SDS011;15623;53.986;11.676;2023-02-01T07:27:18;6.00;;;1.67;;
15218;SDS011;15623;53.986;11.676;2023-02-01T07:32:20;7.80;;;1.30;;
15218;SDS011;15623;53.986;11.676;2023-02-01T07:34:47;8.03;;;1.80;;
15218;SDS011;15623;53.986;11.676;2023-02-01T07:43:15;6.53;;;2.00;;
15218;SDS011;15623;53.986;11.676;2023-02-01T07:45:53;7.83;;;1.47;;
15218;SDS011;15623;53.986;11.676;2023-02-01T07:48:30;4.90;;;1.50;;
15218;SDS011;15623;53.986;11.676;2023-02-01T07:53:32;6.30;;;1.63;;
15218;SDS011;15623;53.986;11.676;2023-02-01T07:56:08;12.73;;;2.50;;
15218;SDS011;15623;53.986;11.676;2023-02-01T08:19:16;11.53;;;2.00;;
15218;SDS011;15623;53.986;11.676;2023-02-01T08:24:31;6.87;;;1.87;;
15218;SDS011;15623;53.986;11.676;2023-02-01T08:27:09;8.93;;;1.70;;
15218;SDS011;15623;53.986;11.676;2023-02-01T08:33:01;11.40;;;2.53;;
15218;SDS011;15623;53.986;11.676;2023-02-01T08:38:52;10.07;;;2.30;;
15218;SDS011;15623;53.986;11.676;2023-02-01T08:41:30;8.93;;;2.10;;
15218;SDS011;15623;53.986;11.676;2023-02-01T08:44:32;10.83;;;2.37;;
15218;SDS011;15623;53.986;11.676;2023-02-01T08:47:02;9.47;;;2.30;;
15218;SDS011;15623;53.986;11.676;2023-02-01T08:54:57;17.37;;;2.23;;
15218;SDS011;15623;53.986;11.676;2023-02-01T08:57:35;15.03;;;2.57;;
15218;SDS011;15623;53.986;11.676;2023-02-01T09:03:56;15.60;;;2.63;;
15218;SDS011;15623;53.986;11.676;2023-02-01T09:06:23;13.47;;;3.20;;
15218;SDS011;15623;53.986;11.676;2023-02-01T09:14:39;11.93;;;2.70;;
15218;SDS011;15623;53.986;11.676;2023-02-01T09:17:25;14.57;;;3.20;;
15218;SDS011;15623;53.986;11.676;2023-02-01T09:19:59;14.03;;;2.87;;
15218;SDS011;15623;53.986;11.676;2023-02-01T09:22:48;15.90;;;2.57;;
15218;SDS011;15623;53.986;11.676;2023-02-01T09:25:36;10.90;;;2.97;;
15218;SDS011;15623;53.986;11.676;2023-02-01T09:28:12;14.40;;;3.00;;
15218;SDS011;15623;53.986;11.676;2023-02-01T09:30:48;14.37;;;3.03;;
15218;SDS011;15623;53.986;11.676;2023-02-01T09:33:28;19.57;;;3.20;;
15218;SDS011;15623;53.986;11.676;2023-02-01T09:36:17;14.10;;;2.77;;
15218;SDS011;15623;53.986;11.676;2023-02-01T09:39:17;9.73;;;2.67;;
15218;SDS011;15623;53.986;11.676;2023-02-01T09:42:16;13.50;;;2.90;;
15218;SDS011;15623;53.986;11.676;2023-02-01T09:45:00;10.83;;;2.77;;
15218;SDS011;15623;53.986;11.676;2023-02-01T09:53:23;7.47;;;2.40;;
15218;SDS011;15623;53.986;11.676;2023-02-01T09:56:29;8.20;;;2.58;;
15218;SDS011;15623;53.986;11.676;2023-02-01T09:59:09;7.38;;;2.00;;
15218;SDS011;15623;53.986;11.676;2023-02-01T10:01:39;8.40;;;2.22;;
15218;SDS011;15623;53.986;11.676;2023-02-01T10:04:08;6.72;;;2.22;;
15218;SDS011;15623;53.986;11.676;2023-02-01T10:06:51;8.15;;;2.40;;
15218;SDS011;15623;53.986;11.676;2023-02-01T10:28:09;10.45;;;2.30;;
15218;SDS011;15623;53.986;11.676;2023-02-01T10:30:58;10.65;;;3.03;;
15218;SDS011;15623;53.986;11.676;2023-02-01T10:33:58;8.03;;;2.43;;
15218;SDS011;15623;53.986;11.676;2023-02-01T10:41:57;11.83;;;2.80;;
15218;SDS011;15623;53.986;11.676;2023-02-01T10:59:13;11.40;;;3.37;;
15218;SDS011;15623;53.986;11.676;2023-02-01T11:02:00;18.90;;;3.33;;
15218;SDS011;15623;53.986;11.676;2023-02-01T11:04:35;17.33;;;3.27;;
15218;SDS011;15623;53.986;11.676;2023-02-01T11:07:13;15.63;;;2.90;;
15218;SDS011;15623;53.986;11.676;2023-02-01T11:10:02;15.70;;;2.67;;
15218;SDS011;15623;53.986;11.676;2023-02-01T11:12:45;13.63;;;3.37;;
15218;SDS011;15623;53.986;11.676;2023-02-01T12:13:52;16.53;;;3.53;;
15218;SDS011;15623;53.986;11.676;2023-02-01T12:19:17;17.00;;;3.20;;
15218;SDS011;15623;53.986;11.676;2023-02-01T12:25:19;13.83;;;3.47;;
15218;SDS011;15623;53.986;11.676;2023-02-01T12:28:00;18.60;;;4.13;;
15218;SDS011;15623;53.986;11.676;2023-02-01T12:42:58;4.23;;;1.40;;
15218;SDS011;15623;53.986;11.676;2023-02-01T12:45:35;6.50;;;1.57;;
15218;SDS011;15623;53.986;11.676;2023-02-01T12:48:25;4.87;;;1.50;;
15218;SDS011;15623;53.986;11.676;2023-02-01T12:53:53;8.30;;;2.13;;
15218;SDS011;15623;53.986;11.676;2023-02-01T12:56:41;10.83;;;2.30;;
15218;SDS011;15623;53.986;11.676;2023-02-01T13:02:14;13.10;;;2.37;;
15218;SDS011;15623;53.986;11.676;2023-02-01T13:04:55;12.87;;;2.63;;
15218;SDS011;15623;53.986;11.676;2023-02-01T13:07:34;8.83;;;2.13;;
15218;SDS011;15623;53.986;11.676;2023-02-01T13:12:59;11.17;;;2.47;;
15218;SDS011;15623;53.986;11.676;2023-02-01T13:15:38;9.37;;;1.80;;
15218;SDS011;15623;53.986;11.676;2023-02-01T13:18:18;12.50;;;2.27;;
15218;SDS011;15623;53.986;11.676;2023-02-01T13:20:55;7.17;;;1.90;;
15218;SDS011;15623;53.986;11.676;2023-02-01T13:23:42;5.33;;;1.90;;
15218;SDS011;15623;53.986;11.676;2023-02-01T13:26:12;11.53;;;2.57;;
15218;SDS011;15623;53.986;11.676;2023-02-01T13:28:47;4.30;;;1.27;;
15218;SDS011;15623;53.986;11.676;2023-02-01T16:32:17;14.83;;;2.40;;
15218;SDS011;15623;53.986;11.676;2023-02-01T16:34:59;16.40;;;2.83;;
15218;SDS011;15623;53.986;11.676;2023-02-01T17:02:23;22.17;;;4.20;;
15218;SDS011;15623;53.986;11.676;2023-02-01T17:04:58;19.90;;;3.87;;
15218;SDS011;15623;53.986;11.676;2023-02-01T17:07:44;20.77;;;3.40;;
15218;SDS011;15623;53.986;11.676;2023-02-01T17:13:32;23.80;;;4.00;;
15218;SDS011;15623;53.986;11.676;2023-02-01T17:16:40;24.47;;;3.67;;
15218;SDS011;15623;53.986;11.676;2023-02-01T17:19:12;22.37;;;3.60;;
15218;SDS011;15623;53.986;11.676;2023-02-01T17:24:40;27.03;;;3.83;;
15218;SDS011;15623;53.986;11.676;2023-02-01T17:27:21;25.87;;;4.07;;
15218;SDS011;15623;53.986;11.676;2023-02-01T17:32:25;25.80;;;4.10;;
15218;SDS011;15623;53.986;11.676;2023-02-01T17:53:09;22.27;;;4.40;;
15218;SDS011;15623;53.986;11.676;2023-02-01T17:56:07;26.03;;;4.10;;
15218;SDS011;15623;53.986;11.676;2023-02-01T17:59:02;25.47;;;4.37;;
15218;SDS011;15623;53.986;11.676;2023-02-01T18:01:49;27.77;;;4.63;;
15218;SDS011;15623;53.986;11.676;2023-02-01T18:04:35;25.33;;;4.07;;
15218;SDS011;15623;53.986;11.676;2023-02-01T18:07:17;31.93;;;4.97;;
15218;SDS011;15623;53.986;11.676;2023-02-01T18:10:19;28.23;;;4.57;;
15218;SDS011;15623;53.986;11.676;2023-02-01T18:12:50;29.07;;;4.67;;
15218;SDS011;15623;53.986;11.676;2023-02-01T18:15:19;23.43;;;4.07;;
15218;SDS011;15623;53.986;11.676;2023-02-01T18:17:50;34.43;;;4.00;;
15218;SDS011;15623;53.986;11.676;2023-02-01T18:20:41;25.30;;;3.90;;
15218;SDS011;15623;53.986;11.676;2023-02-01T18:23:19;32.67;;;4.20;;
15218;SDS011;15623;53.986;11.676;2023-02-01T18:25:54;26.03;;;4.10;;
15218;SDS011;15623;53.986;11.676;2023-02-01T18:28:28;23.87;;;4.57;;
15218;SDS011;15623;53.986;11.676;2023-02-01T18:31:18;38.67;;;5.10;;
15218;SDS011;15623;53.986;11.676;2023-02-01T18:33:56;27.47;;;4.47;;
15218;SDS011;15623;53.986;11.676;2023-02-01T18:36:53;38.30;;;5.07;;
15218;SDS011;15623;53.986;11.676;2023-02-01T18:39:20;36.07;;;4.80;;
15218;SDS011;15623;53.986;11.676;2023-02-01T18:42:05;38.00;;;4.97;;
15218;SDS011;15623;53.986;11.676;2023-02-01T18:44:36;23.47;;;4.73;;
15218;SDS011;15623;53.986;11.676;2023-02-01T18:47:10;34.53;;;5.70;;
15218;SDS011;15623;53.986;11.676;2023-02-01T18:49:52;34.10;;;5.27;;
15218;SDS011;15623;53.986;11.676;2023-02-01T18:52:37;26.57;;;4.77;;
15218;SDS011;15623;53.986;11.676;2023-02-01T18:55:11;47.00;;;6.67;;
15218;SDS011;15623;53.986;11.676;2023-02-01T18:58:02;28.67;;;4.83;;
15218;SDS011;15623;53.986;11.676;2023-02-01T19:03:24;31.97;;;4.63;;
15218;SDS011;15623;53.986;11.676;2023-02-01T19:05:59;33.90;;;4.43;;
15218;SDS011;15623;53.986;11.676;2023-02-01T19:11:47;28.17;;;4.73;;
15218;SDS011;15623;53.986;11.676;2023-02-01T19:14:24;28.10;;;4.27;;
15218;SDS011;15623;53.986;11.676;2023-02-01T19:17:01;42.27;;;6.53;;
15218;SDS011;15623;53.986;11.676;2023-02-01T19:19:36;32.23;;;4.60;;
15218;SDS011;15623;53.986;11.676;2023-02-01T19:50:55;17.57;;;3.90;;
15218;SDS011;15623;53.986;11.676;2023-02-01T19:53:41;27.63;;;3.90;;
15218;SDS011;15623;53.986;11.676;2023-02-01T19:57:06;23.03;;;3.93;;
15218;SDS011;15623;53.986;11.676;2023-02-01T20:03:07;20.77;;;3.93;;
15218;SDS011;15623;53.986;11.676;2023-02-01T20:30:04;9.50;;;2.40;;
15218;SDS011;15623;53.986;11.676;2023-02-01T20:33:02;16.00;;;2.47;;
15218;SDS011;15623;53.986;11.676;2023-02-01T20:36:23;8.90;;;2.40;;
15218;SDS011;15623;53.986;11.676;2023-02-01T20:39:35;18.30;;;3.40;;
15218;SDS011;15623;53.986;11.676;2023-02-01T21:36:43;18.77;;;3.30;;
15218;SDS011;15623;53.986;11.676;2023-02-01T21:39:23;22.20;;;3.50;;
15218;SDS011;15623;53.986;11.676;2023-02-01T21:41:58;20.47;;;3.40;;
15218;SDS011;15623;53.986;11.676;2023-02-01T21:48:02;21.03;;;3.00;;
15218;SDS011;15623;53.986;11.676;2023-02-01T21:51:04;14.60;;;2.67;;
15218;SDS011;15623;53.986;11.676;2023-02-01T21:53:40;27.40;;;3.80;;
15218;SDS011;15623;53.986;11.676;2023-02-01T21:56:31;24.20;;;4.10;;
15218;SDS011;15623;53.986;11.676;2023-02-01T22:02:44;24.20;;;4.37;;
15218;SDS011;15623;53.986;11.676;2023-02-01T22:08:38;23.87;;;3.57;;
15218;SDS011;15623;53.986;11.676;2023-02-01T22:11:35;13.10;;;4.33;;
15218;SDS011;15623;53.986;11.676;2023-02-01T22:14:15;16.83;;;3.33;;
15218;SDS011;15623;53.986;11.676;2023-02-01T22:19:39;23.53;;;4.13;;
15218;SDS011;15623;53.986;11.676;2023-02-01T22:22:35;23.97;;;4.60;;
15218;SDS011;15623;53.986;11.676;2023-02-01T22:25:25;20.47;;;3.93;;
15218;SDS011;15623;53.986;11.676;2023-02-01T22:27:57;20.23;;;3.97;;
15218;SDS011;15623;53.986;11.676;2023-02-01T22:33:29;22.50;;;4.30;;
15218;SDS011;15623;53.986;11.676;2023-02-01T22:36:10;33.57;;;5.43;;
15218;SDS011;15623;53.986;11.676;2023-02-01T22:38:58;25.17;;;4.17;;
15218;SDS011;15623;53.986;11.676;2023-02-01T22:41:51;29.30;;;4.90;;
15218;SDS011;15623;53.986;11.676;2023-02-01T22:44:24;25.87;;;4.40;;
15218;SDS011;15623;53.986;11.676;2023-02-01T22:46:59;27.17;;;4.37;;
15218;SDS011;15623;53.986;11.676;2023-02-01T22:49:38;26.93;;;3.93;;
15218;SDS011;15623;53.986;11.676;2023-02-01T22:52:09;20.57;;;4.00;;
15218;SDS011;15623;53.986;11.676;2023-02-01T22:54:43;23.90;;;3.87;;
15218;SDS011;15623;53.986;11.676;2023-02-01T23:00:51;21.27;;;3.73;;
15218;SDS011;15623;53.986;11.676;2023-02-01T23:06:27;23.20;;;3.97;;
15218;SDS011;15623;53.986;11.676;2023-02-01T23:12:20;26.53;;;4.63;;
15218;SDS011;15623;53.986;11.676;2023-02-01T23:14:58;31.00;;;4.67;;
15218;SDS011;15623;53.986;11.676;2023-02-01T23:25:49;31.63;;;4.90;;
15218;SDS011;15623;53.986;11.676;2023-02-01T23:28:30;22.00;;;4.43;;
15218;SDS011;15623;53.986;11.676;2023-02-01T23:31:06;22.23;;;4.23;;
15218;SDS011;15623;53.986;11.676;2023-02-01T23:33:38;27.83;;;4.37;;
15218;SDS011;15623;53.986;11.676;2023-02-01T23:36:20;23.70;;;4.93;;
15218;SDS011;15623;53.986;11.676;2023-02-01T23:39:06;23.63;;;3.90;;
15218;SDS011;15623;53.986;11.676;2023-02-01T23:44:23;24.00;;;4.10;;
15218;SDS011;15623;53.986;11.676;2023-02-01T23:47:03;22.07;;;3.80;;
15218;SDS011;15623;53.986;11.676;2023-02-01T23:49:34;22.50;;;3.40;;
15218;SDS011;15623;53.986;11.676;2023-02-01T23:55:09;16.53;;;3.33;;
15218;SDS011;15623;53.986;11.676;2023-02-01T23:57:42;21.83;;;3.60;;
